createdAt,value
2023-01-13T00:00:48.060Z,100071.44
2023-01-13T00:03:14.574Z,100080.53
2023-01-13T00:05:41.116Z,100066.94
2023-01-13T00:08:07.607Z,100079.19
2023-01-13T00:10:35.090Z,100072.53
2023-01-13T00:13:04.018Z,100060.53
2023-01-13T00:15:31.364Z,100057.25
2023-01-13T00:17:57.864Z,100045.38
2023-01-13T00:20:24.413Z,100044.25
2023-01-13T00:22:50.925Z,100049.47
2023-01-13T00:25:17.605Z,100058.47
2023-01-13T00:27:44.130Z,100048.63
2023-01-13T00:30:11.280Z,100053.72
2023-01-13T00:32:38.263Z,100060.91
2023-01-13T00:35:05.270Z,100064.53
2023-01-13T00:37:31.780Z,100050.34
2023-01-13T00:39:58.272Z,100063.84
2023-01-13T00:42:43.204Z,100064.31
2023-01-13T00:45:10.087Z,100064.56
2023-01-13T00:47:36.621Z,100059.81
2023-01-13T00:50:03.251Z,100056.78
2023-01-13T00:52:32.447Z,100066.63
2023-01-13T00:54:59.006Z,100057.28
2023-01-13T00:57:25.508Z,100058.13
2023-01-13T00:59:52.004Z,100068.91
2023-01-13T01:02:18.605Z,100064.06
2023-01-13T01:04:45.196Z,100064.91
2023-01-13T01:07:11.704Z,100071.38
2023-01-13T01:09:39.525Z,100061.03
2023-01-13T01:12:06.193Z,100053.25
2023-01-13T01:14:32.759Z,100061.63
2023-01-13T01:16:59.344Z,100061.03
2023-01-13T01:19:25.856Z,100064.91
2023-01-13T01:21:52.431Z,100062.84
2023-01-13T01:24:19.037Z,100062.34
2023-01-13T01:26:45.636Z,100059.81
2023-01-13T01:29:15.203Z,100060.56
2023-01-13T01:31:42.090Z,100063.22
2023-01-13T01:34:08.844Z,100072.06
2023-01-13T01:36:36.648Z,100078.78
2023-01-13T01:39:04.129Z,100082.78
2023-01-13T01:41:32.553Z,100094.31
2023-01-13T01:44:01.658Z,100093.72
2023-01-13T01:46:43.750Z,100102.81
2023-01-13T01:49:25.164Z,100100.25
2023-01-13T01:52:02.514Z,100105.50
2023-01-13T01:54:37.576Z,100104.25
2023-01-13T01:57:04.759Z,100105.00
2023-01-13T01:59:35.047Z,100103.19
2023-01-13T02:02:02.473Z,100098.28
2023-01-13T02:04:39.939Z,100102.06
2023-01-13T02:07:06.825Z,100098.78
2023-01-13T02:09:35.115Z,100093.69
2023-01-13T02:12:20.001Z,100086.16
2023-01-13T02:14:46.973Z,100084.06
2023-01-13T02:17:36.892Z,100089.41
2023-01-13T02:20:45.792Z,100092.06
2023-01-13T02:23:57.530Z,100087.47
2023-01-13T02:27:06.167Z,100089.59
2023-01-13T02:30:19.853Z,100087.53
2023-01-13T02:33:13.873Z,100084.63
2023-01-13T02:35:54.031Z,100089.75
2023-01-13T02:38:28.887Z,100089.16
2023-01-13T02:41:26.022Z,100091.72
2023-01-13T02:44:07.142Z,100094.59
2023-01-13T02:46:39.489Z,100089.50
2023-01-13T02:49:10.829Z,100097.91
2023-01-13T02:51:40.707Z,100077.25
2023-01-13T02:54:15.535Z,100090.47
2023-01-13T02:56:47.320Z,100086.09
2023-01-13T02:59:14.246Z,100076.72
2023-01-13T03:01:42.411Z,100085.84
2023-01-13T03:04:14.127Z,100077.47
2023-01-13T03:07:01.586Z,100085.94
2023-01-13T03:09:36.483Z,100083.91
2023-01-13T03:12:38.036Z,100074.84
2023-01-13T03:15:17.142Z,100079.69
2023-01-13T03:18:04.272Z,100074.69
2023-01-13T03:20:37.319Z,100074.03
2023-01-13T03:23:28.501Z,100054.28
2023-01-13T03:26:29.049Z,100057.53
2023-01-13T03:29:13.622Z,100072.28
2023-01-13T03:31:46.693Z,100073.59
2023-01-13T03:34:17.422Z,100065.94
2023-01-13T03:36:47.104Z,100054.19
2023-01-13T03:39:19.820Z,100064.22
2023-01-13T03:41:53.224Z,100063.38
2023-01-13T03:44:32.790Z,100056.34
2023-01-13T03:47:22.164Z,100057.19
2023-01-13T03:50:11.264Z,100066.88
2023-01-13T03:52:43.556Z,100063.88
2023-01-13T03:55:18.568Z,100068.47
2023-01-13T03:57:52.644Z,100074.28
2023-01-13T04:00:21.262Z,100090.72
2023-01-13T04:02:56.528Z,100082.09
2023-01-13T04:05:23.189Z,100074.81
2023-01-13T04:08:20.795Z,100067.91
2023-01-13T04:10:59.428Z,100069.31
2023-01-13T04:13:30.130Z,100060.06
2023-01-13T04:15:56.653Z,100064.66
2023-01-13T04:18:30.707Z,100058.47
2023-01-13T04:21:00.421Z,100061.13
2023-01-13T04:23:28.037Z,100070.63
2023-01-13T04:25:55.301Z,100056.44
2023-01-13T04:28:22.626Z,100072.44
2023-01-13T04:30:49.497Z,100072.66
2023-01-13T04:33:17.370Z,100066.16
2023-01-13T04:35:44.572Z,100066.38
2023-01-13T04:38:16.420Z,100066.81
2023-01-13T04:40:43.112Z,100070.88
2023-01-13T04:43:10.004Z,100061.47
2023-01-13T04:45:36.738Z,100058.66
2023-01-13T04:48:03.503Z,100050.66
2023-01-13T04:50:29.890Z,100051.41
2023-01-13T04:52:56.517Z,100058.44
2023-01-13T04:55:24.140Z,100049.47
2023-01-13T04:57:50.559Z,100063.44
2023-01-13T05:00:19.563Z,100062.59
2023-01-13T05:02:46.083Z,100073.03
2023-01-13T05:05:12.452Z,100076.16
2023-01-13T05:07:38.783Z,100067.72
2023-01-13T05:10:05.656Z,100066.88
2023-01-13T05:12:50.849Z,100054.81
2023-01-13T05:15:36.191Z,100053.97
2023-01-13T05:18:03.631Z,100047.41
2023-01-13T05:20:29.982Z,100049.47
2023-01-13T05:23:14.869Z,100050.41
2023-01-13T05:25:44.375Z,100055.03
2023-01-13T05:28:11.590Z,100051.06
2023-01-13T05:30:43.554Z,100056.06
2023-01-13T05:33:16.072Z,100047.41
2023-01-13T05:35:44.193Z,100057.88
2023-01-13T05:38:11.948Z,100057.31
2023-01-13T05:40:59.551Z,100070.03
2023-01-13T05:43:26.547Z,100064.91
2023-01-13T05:46:09.682Z,100057.66
2023-01-13T05:48:38.720Z,100050.72
2023-01-13T05:51:07.521Z,100056.16
2023-01-13T05:53:34.374Z,100056.81
2023-01-13T05:56:04.469Z,100052.22
2023-01-13T05:58:31.177Z,100066.63
2023-01-13T06:01:06.020Z,100053.84
2023-01-13T06:03:32.906Z,100056.31
2023-01-13T06:06:01.304Z,100063.25
2023-01-13T06:08:28.101Z,100077.13
2023-01-13T06:10:54.473Z,100061.56
2023-01-13T06:13:20.862Z,100067.84
2023-01-13T06:15:47.208Z,100061.56
2023-01-13T06:18:13.740Z,100065.72
2023-01-13T06:20:40.104Z,100059.41
2023-01-13T06:23:09.625Z,100063.66
2023-01-13T06:25:44.393Z,100064.84
2023-01-13T06:28:10.735Z,100074.56
2023-01-13T06:30:49.113Z,100065.59
2023-01-13T06:33:20.503Z,100085.66
2023-01-13T06:35:52.611Z,100071.81
2023-01-13T06:38:21.493Z,100066.56
2023-01-13T06:40:48.254Z,100071.72
2023-01-13T06:43:16.387Z,100080.69
2023-01-13T06:45:52.330Z,100088.78
2023-01-13T06:48:23.378Z,100086.25
2023-01-13T06:50:49.817Z,100101.59
2023-01-13T06:53:16.190Z,100100.22
2023-01-13T06:55:42.493Z,100105.97
2023-01-13T06:58:08.866Z,100110.22
2023-01-13T07:00:37.074Z,100106.72
2023-01-13T07:03:08.622Z,100091.06
2023-01-13T07:05:34.998Z,100096.19
2023-01-13T07:08:01.454Z,100094.56
2023-01-13T07:10:28.270Z,100099.38
2023-01-13T07:13:13.222Z,100098.00
2023-01-13T07:15:39.575Z,100103.56
2023-01-13T07:18:06.006Z,100106.31
2023-01-13T07:20:32.426Z,100120.69
2023-01-13T07:22:58.916Z,100121.44
2023-01-13T07:25:25.894Z,100126.13
2023-01-13T07:27:52.323Z,100119.19
2023-01-13T07:30:18.847Z,100125.28
2023-01-13T07:32:45.282Z,100132.09
2023-01-13T07:35:11.680Z,100118.66
2023-01-13T07:37:39.367Z,100114.97
2023-01-13T07:40:06.704Z,100116.00
2023-01-13T07:42:51.471Z,100125.28
2023-01-13T07:45:17.807Z,100113.22
2023-01-13T07:47:44.143Z,100121.53
2023-01-13T07:50:10.918Z,100117.28
2023-01-13T07:52:37.245Z,100123.03
2023-01-13T07:55:03.742Z,100129.22
2023-01-13T07:57:30.085Z,100140.84
2023-01-13T07:59:56.432Z,100148.53
2023-01-13T08:02:23.150Z,100139.78
2023-01-13T08:04:49.656Z,100139.66
2023-01-13T08:07:16.050Z,100129.84
2023-01-13T08:09:42.355Z,100142.53
2023-01-13T08:12:27.283Z,100140.72
2023-01-13T08:14:54.013Z,100145.31
2023-01-13T08:17:20.681Z,100162.19
2023-01-13T08:19:47.351Z,100152.44
2023-01-13T08:22:13.687Z,100162.19
2023-01-13T08:24:40.052Z,100168.97
2023-01-13T08:27:06.388Z,100172.81
2023-01-13T08:29:32.714Z,100174.63
2023-01-13T08:31:59.227Z,100177.09
2023-01-13T08:34:25.721Z,100178.69
2023-01-13T08:36:52.093Z,100181.59
2023-01-13T08:39:18.592Z,100193.09
2023-01-13T08:41:58.189Z,100190.75
2023-01-13T08:44:27.568Z,100191.81
2023-01-13T08:46:54.852Z,100186.38
2023-01-13T08:49:21.810Z,100192.25
2023-01-13T08:51:48.582Z,100181.66
2023-01-13T08:54:18.052Z,100187.75
2023-01-13T08:56:45.680Z,100168.84
2023-01-13T08:59:17.079Z,100179.00
2023-01-13T09:01:44.406Z,100181.69
2023-01-13T09:04:19.430Z,100194.13
2023-01-13T09:06:47.392Z,100188.19
2023-01-13T09:09:13.957Z,100176.25
2023-01-13T09:12:01.694Z,100185.50
2023-01-13T09:14:31.227Z,100182.38
2023-01-13T09:16:58.601Z,100191.78
2023-01-13T09:19:25.947Z,100193.38
2023-01-13T09:21:52.636Z,100181.88
2023-01-13T09:24:19.659Z,100186.22
2023-01-13T09:26:46.100Z,100196.91
2023-01-13T09:29:12.528Z,100204.59
2023-01-13T09:31:38.934Z,100193.06
2023-01-13T09:34:25.328Z,100200.03
2023-01-13T09:36:51.682Z,100194.69
2023-01-13T09:39:18.438Z,100199.34
2023-01-13T09:42:10.739Z,100189.97
2023-01-13T09:44:48.025Z,100207.56
2023-01-13T09:47:30.513Z,100202.34
2023-01-13T09:50:15.470Z,100218.81
2023-01-13T09:52:43.056Z,100208.03
2023-01-13T09:55:15.510Z,100207.81
2023-01-13T09:57:42.044Z,100215.06
2023-01-13T10:00:25.775Z,100213.28
2023-01-13T10:03:19.286Z,100211.97
2023-01-13T10:05:57.465Z,100211.53
2023-01-13T10:08:32.518Z,100224.00
2023-01-13T10:11:34.206Z,100211.50
2023-01-13T10:14:15.615Z,100227.09
2023-01-13T10:17:07.551Z,100231.59
2023-01-13T10:19:55.789Z,100228.38
2023-01-13T10:22:30.946Z,100208.50
2023-01-13T10:25:03.453Z,100229.88
2023-01-13T10:27:37.261Z,100222.50
2023-01-13T10:30:17.815Z,100218.84
2023-01-13T10:32:50.179Z,100227.13
2023-01-13T10:35:16.688Z,100238.81
2023-01-13T10:37:56.731Z,100232.06
2023-01-13T10:40:23.158Z,100234.31
2023-01-13T10:43:05.502Z,100242.75
2023-01-13T10:45:31.843Z,100229.41
2023-01-13T10:48:13.753Z,100230.56
2023-01-13T10:50:40.583Z,100234.59
2023-01-13T10:53:24.186Z,100234.75
2023-01-13T10:56:04.271Z,100233.00
2023-01-13T10:58:30.789Z,100224.91
2023-01-13T11:01:03.046Z,100233.75
2023-01-13T11:03:36.912Z,100237.00
2023-01-13T11:06:03.603Z,100233.69
2023-01-13T11:08:42.043Z,100232.31
2023-01-13T11:11:26.930Z,100248.16
2023-01-13T11:14:15.343Z,100235.81
2023-01-13T11:16:53.089Z,100253.09
2023-01-13T11:19:24.268Z,100248.84
2023-01-13T11:22:01.471Z,100247.88
2023-01-13T11:24:53.011Z,100237.06
2023-01-13T11:27:52.522Z,100240.41
2023-01-13T11:30:21.808Z,100252.16
2023-01-13T11:33:09.890Z,100245.59
2023-01-13T11:35:43.545Z,100254.88
2023-01-13T11:38:35.961Z,100261.47
2023-01-13T11:41:14.069Z,100256.66
2023-01-13T11:43:51.575Z,100251.72
2023-01-13T11:46:28.106Z,100254.53
2023-01-13T11:48:56.629Z,100240.75
2023-01-13T11:51:34.819Z,100248.16
2023-01-13T11:54:38.777Z,100264.44
2023-01-13T11:57:36.573Z,100257.41
2023-01-13T12:01:07.748Z,100255.63
2023-01-13T12:03:50.060Z,100250.28
2023-01-13T12:07:07.294Z,100253.16
2023-01-13T12:09:45.515Z,100240.25
2023-01-13T12:12:27.749Z,100259.03
2023-01-13T12:15:12.547Z,100267.34
2023-01-13T12:18:19.143Z,100284.94
2023-01-13T12:20:59.979Z,100298.84
2023-01-13T12:23:34.376Z,100308.72
2023-01-13T12:26:11.457Z,100320.13
2023-01-13T12:28:44.596Z,100321.63
2023-01-13T12:31:12.502Z,100314.56
2023-01-13T12:34:00.651Z,100316.63
2023-01-13T12:37:02.665Z,100313.19
2023-01-13T12:39:43.697Z,100312.78
2023-01-13T12:42:51.223Z,100316.00
2023-01-13T12:45:26.950Z,100322.94
2023-01-13T12:47:53.923Z,100309.38
2023-01-13T12:50:26.176Z,100317.91
2023-01-13T12:52:57.417Z,100314.88
2023-01-13T12:55:36.147Z,100322.88
2023-01-13T12:58:05.296Z,100312.59
2023-01-13T13:00:52.032Z,100329.38
2023-01-13T13:03:32.112Z,100312.94
2023-01-13T13:06:20.454Z,100326.78
2023-01-13T13:09:28.867Z,100329.03
2023-01-13T13:11:57.896Z,100347.41
2023-01-13T13:14:39.310Z,100355.53
2023-01-13T13:17:28.595Z,100345.19
2023-01-13T13:19:57.398Z,100351.72
2023-01-13T13:22:26.741Z,100347.22
2023-01-13T13:24:56.104Z,100352.56
2023-01-13T13:27:28.338Z,100355.66
2023-01-13T13:30:00.048Z,100355.22
2023-01-13T13:33:00.146Z,100356.84
2023-01-13T13:35:51.651Z,100354.69
2023-01-13T13:39:08.469Z,100369.31
2023-01-13T13:41:54.665Z,100367.50
2023-01-13T13:44:58.676Z,100391.53
2023-01-13T13:47:25.041Z,100384.75
2023-01-13T13:49:54.324Z,100394.13
2023-01-13T13:52:22.489Z,100398.47
2023-01-13T13:54:51.843Z,100408.78
2023-01-13T13:57:21.437Z,100420.91
2023-01-13T13:59:57.403Z,100415.09
2023-01-13T14:02:29.835Z,100418.13
2023-01-13T14:05:23.101Z,100426.13
2023-01-13T14:07:52.487Z,100421.97
2023-01-13T14:10:27.942Z,100437.28
2023-01-13T14:12:54.325Z,100445.69
2023-01-13T14:15:35.520Z,100437.25
2023-01-13T14:18:05.811Z,100442.00
2023-01-13T14:20:34.361Z,100451.41
2023-01-13T14:23:01.601Z,100440.84
2023-01-13T14:25:32.320Z,100447.91
2023-01-13T14:28:17.133Z,100450.16
2023-01-13T14:30:44.242Z,100462.63
2023-01-13T14:33:18.219Z,100452.75
2023-01-13T14:36:23.629Z,100464.53
2023-01-13T14:39:05.347Z,100480.72
2023-01-13T14:41:43.846Z,100480.72
2023-01-13T14:44:23.493Z,100487.66
2023-01-13T14:46:50.734Z,100501.06
2023-01-13T14:49:38.920Z,100504.03
2023-01-13T14:52:13.349Z,100508.78
2023-01-13T14:54:45.256Z,100517.91
2023-01-13T14:57:27.339Z,100519.63
2023-01-13T15:00:23.400Z,100522.47
2023-01-13T15:02:53.225Z,100531.31
2023-01-13T15:05:19.574Z,100528.28
2023-01-13T15:08:12.169Z,100529.03
2023-01-13T15:10:51.198Z,100541.50
2023-01-13T15:13:29.431Z,100546.66
2023-01-13T15:15:57.541Z,100561.94
2023-01-13T15:18:23.990Z,100548.91
2023-01-13T15:20:52.913Z,100561.47
2023-01-13T15:23:20.104Z,100557.28
2023-01-13T15:25:47.627Z,100562.50
2023-01-13T15:28:16.194Z,100569.56
2023-01-13T15:30:42.528Z,100574.69
2023-01-13T15:33:11.540Z,100571.75
2023-01-13T15:35:41.142Z,100572.69
2023-01-13T15:38:16.655Z,100580.88
2023-01-13T15:40:43.883Z,100582.63
2023-01-13T15:43:32.963Z,100588.53
2023-01-13T15:46:37.858Z,100588.41
2023-01-13T15:49:34.719Z,100588.34
2023-01-13T15:52:03.120Z,100605.84
2023-01-13T15:54:29.789Z,100603.38
2023-01-13T15:56:56.509Z,100607.78
2023-01-13T15:59:26.514Z,100614.16
2023-01-13T16:01:52.844Z,100617.47
2023-01-13T16:04:19.220Z,100612.91
2023-01-13T16:06:47.266Z,100628.13
2023-01-13T16:09:14.608Z,100624.81
2023-01-13T16:11:41.019Z,100621.91
2023-01-13T16:14:07.491Z,100625.94
2023-01-13T16:16:33.941Z,100633.25
2023-01-13T16:19:00.315Z,100630.69
2023-01-13T16:21:26.669Z,100646.75
2023-01-13T16:23:53.080Z,100643.81
2023-01-13T16:26:24.842Z,100651.53
2023-01-13T16:28:53.368Z,100659.25
2023-01-13T16:31:26.593Z,100656.38
2023-01-13T16:33:53.548Z,100662.59
2023-01-13T16:36:21.392Z,100666.13
2023-01-13T16:38:49.057Z,100668.00
2023-01-13T16:41:15.576Z,100671.59
2023-01-13T16:43:42.107Z,100674.47
2023-01-13T16:46:19.027Z,100677.72
2023-01-13T16:48:46.099Z,100681.16
2023-01-13T16:51:12.484Z,100678.59
2023-01-13T16:53:39.035Z,100683.16
2023-01-13T16:56:14.800Z,100689.41
2023-01-13T16:58:41.201Z,100705.41
2023-01-13T17:01:18.526Z,100707.13
2023-01-13T17:03:48.891Z,100716.63
2023-01-13T17:06:17.277Z,100711.16
2023-01-13T17:08:43.584Z,100713.69
2023-01-13T17:11:10.136Z,100721.81
2023-01-13T17:13:36.543Z,100725.13
2023-01-13T17:16:02.872Z,100727.03
2023-01-13T17:18:32.097Z,100738.19
2023-01-13T17:20:59.852Z,100731.03
2023-01-13T17:23:27.371Z,100727.44
2023-01-13T17:25:54.618Z,100741.44
2023-01-13T17:28:21.084Z,100740.38
2023-01-13T17:30:47.772Z,100739.53
2023-01-13T17:33:14.133Z,100742.47
2023-01-13T17:35:40.578Z,100747.72
2023-01-13T17:38:06.894Z,100749.34
2023-01-13T17:40:33.217Z,100747.63
2023-01-13T17:42:59.533Z,100755.34
2023-01-13T17:45:25.942Z,100755.34
2023-01-13T17:47:57.714Z,100760.59
2023-01-13T17:50:24.594Z,100763.25
2023-01-13T17:52:50.925Z,100760.22
2023-01-13T17:55:17.277Z,100758.47
2023-01-13T17:57:43.608Z,100762.94
2023-01-13T18:00:12.093Z,100772.66
2023-01-13T18:02:41.386Z,100769.25
2023-01-13T18:05:08.111Z,100776.53
2023-01-13T18:07:34.416Z,100779.41
2023-01-13T18:10:00.730Z,100789.94
2023-01-13T18:12:27.054Z,100786.56
2023-01-13T18:14:53.390Z,100791.97
2023-01-13T18:17:19.783Z,100786.81
2023-01-13T18:20:04.535Z,100781.88
2023-01-13T18:22:49.373Z,100790.72
2023-01-13T18:25:34.060Z,100805.59
2023-01-13T18:28:03.683Z,100797.41
2023-01-13T18:30:30.327Z,100800.84
2023-01-13T18:32:57.357Z,100800.84
2023-01-13T18:35:23.777Z,100799.81
2023-01-13T18:37:50.129Z,100808.50
2023-01-13T18:40:16.767Z,100808.66
2023-01-13T18:42:52.003Z,100809.84
2023-01-13T18:45:20.718Z,100822.31
2023-01-13T18:47:47.071Z,100825.09
2023-01-13T18:50:13.803Z,100812.78
2023-01-13T18:52:41.225Z,100823.47
2023-01-13T18:55:08.131Z,100824.38
2023-01-13T18:57:38.979Z,100821.66
2023-01-13T19:00:07.336Z,100827.94
2023-01-13T19:02:34.473Z,100828.78
2023-01-13T19:05:00.820Z,100837.38
2023-01-13T19:07:29.053Z,100830.81
2023-01-13T19:09:55.871Z,100826.16
2023-01-13T19:12:26.168Z,100837.69
2023-01-13T19:14:54.238Z,100841.00
2023-01-13T19:17:22.095Z,100838.47
2023-01-13T19:19:51.496Z,100842.94
2023-01-13T19:22:23.272Z,100838.53
2023-01-13T19:24:50.439Z,100837.56
2023-01-13T19:27:18.462Z,100842.72
2023-01-13T19:29:52.527Z,100857.84
2023-01-13T19:32:22.475Z,100853.88
2023-01-13T19:34:50.802Z,100841.00
2023-01-13T19:37:17.683Z,100846.19
2023-01-13T19:39:44.102Z,100861.94
2023-01-13T19:42:32.210Z,100870.97
2023-01-13T19:45:36.675Z,100880.75
2023-01-13T19:48:04.770Z,100902.34
2023-01-13T19:50:35.476Z,100901.69
2023-01-13T19:53:01.814Z,100905.22
2023-01-13T19:55:28.237Z,100912.44
2023-01-13T19:57:54.619Z,100925.09
2023-01-13T20:00:21.767Z,100921.84
2023-01-13T20:02:49.927Z,100934.22
2023-01-13T20:05:21.002Z,100932.59
2023-01-13T20:07:48.837Z,100938.25
2023-01-13T20:10:16.277Z,100929.41
2023-01-13T20:12:42.755Z,100947.22
2023-01-13T20:15:09.634Z,100940.00
2023-01-13T20:17:36.047Z,100938.25
2023-01-13T20:20:03.834Z,100947.28
2023-01-13T20:22:35.203Z,100956.94
2023-01-13T20:25:01.730Z,100954.09
2023-01-13T20:27:28.333Z,100938.00
2023-01-13T20:29:54.652Z,100955.16
2023-01-13T20:32:21.022Z,100946.97
2023-01-13T20:34:47.364Z,100965.22
2023-01-13T20:37:13.746Z,100950.31
2023-01-13T20:39:42.862Z,100963.84
2023-01-13T20:42:27.844Z,100970.59
2023-01-13T20:44:54.227Z,100966.50
2023-01-13T20:47:20.590Z,100972.09
2023-01-13T20:49:47.237Z,100984.53
2023-01-13T20:52:14.486Z,100990.56
2023-01-13T20:54:41.297Z,100994.88
2023-01-13T20:57:10.108Z,100999.22
2023-01-13T20:59:37.845Z,100999.22
2023-01-13T21:02:06.445Z,101006.56
2023-01-13T21:04:32.784Z,101011.03
2023-01-13T21:06:59.136Z,101013.84
2023-01-13T21:09:27.099Z,101015.34
2023-01-13T21:12:12.530Z,101010.09
2023-01-13T21:14:57.320Z,101015.59
2023-01-13T21:17:42.018Z,101020.91
2023-01-13T21:20:11.096Z,101023.66
2023-01-13T21:22:38.808Z,101016.69
2023-01-13T21:25:05.952Z,100996.31
2023-01-13T21:27:32.863Z,101015.59
2023-01-13T21:29:59.189Z,101017.16
2023-01-13T21:32:25.550Z,101018.94
2023-01-13T21:34:51.924Z,101023.16
2023-01-13T21:37:18.557Z,101020.75
2023-01-13T21:39:45.002Z,101027.88
2023-01-13T21:42:33.700Z,101030.72
2023-01-13T21:45:18.386Z,101021.78
2023-01-13T21:47:50.514Z,101032.50
2023-01-13T21:50:19.470Z,101038.53
2023-01-13T21:52:47.824Z,101037.09
2023-01-13T21:55:28.705Z,101041.03
2023-01-13T21:58:21.382Z,101038.44
2023-01-13T22:00:49.329Z,101041.97
2023-01-13T22:03:18.126Z,101048.94
2023-01-13T22:05:45.067Z,101059.69
2023-01-13T22:08:12.548Z,101052.63
2023-01-13T22:10:56.843Z,101043.53
2023-01-13T22:13:41.780Z,101044.56
2023-01-13T22:16:09.124Z,101057.03
2023-01-13T22:18:35.501Z,101059.94
2023-01-13T22:21:01.900Z,101056.47
2023-01-13T22:23:28.470Z,101061.81
2023-01-13T22:26:02.289Z,101059.75
2023-01-13T22:28:33.996Z,101060.44
2023-01-13T22:31:01.312Z,101066.66
2023-01-13T22:33:27.736Z,101077.06
2023-01-13T22:35:55.353Z,101073.63
2023-01-13T22:38:21.936Z,101075.56
2023-01-13T22:40:59.040Z,101078.84
2023-01-13T22:43:26.477Z,101077.94
2023-01-13T22:46:00.410Z,101082.22
2023-01-13T22:48:27.452Z,101085.31
2023-01-13T22:50:54.016Z,101084.72
2023-01-13T22:53:20.943Z,101097.38
2023-01-13T22:55:57.239Z,101104.09
2023-01-13T22:58:24.305Z,101111.06
2023-01-13T23:00:51.225Z,101112.69
2023-01-13T23:03:18.417Z,101108.41
2023-01-13T23:05:45.830Z,101113.78
2023-01-13T23:08:12.754Z,101117.25
2023-01-13T23:10:40.005Z,101107.50
2023-01-13T23:13:06.861Z,101117.19
2023-01-13T23:15:38.984Z,101123.44
2023-01-13T23:18:05.572Z,101121.72
2023-01-13T23:20:33.112Z,101109.00
2023-01-13T23:22:59.491Z,101121.22
2023-01-13T23:25:26.591Z,101126.03
2023-01-13T23:27:53.260Z,101122.03
2023-01-13T23:30:19.660Z,101119.38
2023-01-13T23:32:46.089Z,101136.56
2023-01-13T23:35:12.638Z,101140.78
2023-01-13T23:37:38.953Z,101133.66
2023-01-13T23:40:06.605Z,101129.97
2023-01-13T23:42:32.964Z,101133.66
2023-01-13T23:44:59.321Z,101123.84
2023-01-13T23:47:25.674Z,101126.50
2023-01-13T23:49:52.092Z,101138.22
2023-01-13T23:52:18.452Z,101133.72
2023-01-13T23:54:44.856Z,101127.31
2023-01-13T23:57:11.403Z,101130.22
2023-01-13T23:59:37.760Z,101125.34
